Terminal Aerodrome Forecast
Issued by NWS Jackson, KY

Home | Current Version | Previous Version | Text Only | Print | Product List | Glossary On
Versions: 1 2 3 4 5 6 7 8 9 10 11 12 13
000
FTUS43 KJKL 202300
TAFLOZ
TAF
KLOZ 202329Z 2100/2124 VRB03KT P6SM BKN060
     FM210900 VRB02KT 5SM BR SCT250
     FM211200 VRB06KT P6SM FEW060 SCT250=

USA.gov is the U.S. government's official web portal to all federal, state and local government web resources and services.